Albert, OK

12:21 PM CST on November 22, 2014 (GMT -0600)
Peck's country | Change Station
CLOSE
Current Station
Personal Weather Station
Location: Anadarko, OK
Elevation: 1255 ft
Nearby Weather Stations

Elev 1255 ft 35.10 °N, 98.32 °W | Updated 1 minute ago

Rain
Rain
56.4 °F
Feels Like 56.4 °F
N
7.0
Wind Variable Wind from SE
Gusts 13.0 mph

Today
High -- | Low -- °F
--% Chance of Precip.
Yesterday
High -- | Low -- °F
Precip. -- in
7:15 AM 5:23 PM
New Moon, 0% visible
Pressure 29.92 in
Visibility 10.0 miles
Clouds Overcast 400 ft
Dew Point 55 °F
Humidity 95%
Rainfall 0.50 in
Snow Depth Not available.
UV 1 out of 12
Pollen .20 out of 12
Air Quality Not available.
Flu Activity Not available.
METAR KOJA 221755Z AUTO 16008KT 10SM OVC004 12/12 A2992 RMK AO2 LTG DSNT S AND SW

More Conditions Fewer Conditions

Pressure 29.92 in
Visibility 10.0 miles
Clouds Overcast 400 ft
Dew Point 55 °F
Humidity 95%
Rainfall 0.50 in
Snow Depth Not available.
UV 1 out of 12
Pollen .20 out of 12
Air Quality Not available.
Flu Activity Not available.
METAR KOJA 221755Z AUTO 16008KT 10SM OVC004 12/12 A2992 RMK AO2 LTG DSNT S AND SW

More Conditions Fewer Conditions

10-Day Weather Forecast

Almanac

Astronomy

Nov. 22, 2014 Rise Set
Actual Time
Civil Twilight
Nautical Twilight
Astronomical Twilight
Moon
Length of Visible Light
Length of Day
Tomorrow will be .
, % of the Moon is Illuminated

Today's Extremes

State Highs State Lows

Community

WunderPhotos

Upload Photos

1,772,872 photos uploaded!

WunderBlogs® & News

Nearby

Air Quality

  Air Quality AQ Index Pollutant
Not available.

Snow Depth

Station Depth Elevation

Earthquake Activity

City Distance Mag. Time & Date
Minimum magnitude displayed is 2.5.

Coastal Water Temperatures

Place Temperature

Nearby Weather Stations